Time;durP1;ratioP1;P1;durP2;ratioP2;P2;SDS_P1;SDS_P2;PMS_P1;PMS_P2;Temp;Humidity;BMP_temperature;BMP_pressure;BME280_temperature;BME280_humidity;BME280_pressure;Samples;Min_cycle;Max_cycle;Signal;HPM_P1;HPM_P2
2021/05/01 00:01:59;;;;;;;68.97;44.93;;;9.00;99.90;;;;;;5030963;28;20179;-65
2021/05/01 00:04:25;;;;;;;63.57;45.13;;;9.00;99.90;;;;;;5031526;28;20198;-63
2021/05/01 00:06:50;;;;;;;60.13;42.07;;;9.00;99.90;;;;;;5033152;28;20175;-64
2021/05/01 00:09:16;;;;;;;62.60;43.57;;;8.90;99.90;;;;;;5035008;28;20207;-63
2021/05/01 00:11:42;;;;;;;54.70;39.57;;;8.80;99.90;;;;;;5035026;28;20254;-65
2021/05/01 00:14:07;;;;;;;62.33;39.73;;;8.80;99.90;;;;;;5035294;28;20258;-64
2021/05/01 00:16:33;;;;;;;52.30;36.37;;;8.80;99.90;;;;;;5035305;28;20298;-64
2021/05/01 00:18:59;;;;;;;50.40;36.50;;;8.60;99.90;;;;;;5035271;28;20192;-65
2021/05/01 00:21:25;;;;;;;52.77;37.57;;;8.50;99.90;;;;;;5034858;28;20195;-64
2021/05/01 00:23:51;;;;;;;58.03;39.07;;;8.50;99.90;;;;;;5035314;28;20222;-64
2021/05/01 00:26:17;;;;;;;54.50;35.93;;;8.50;99.90;;;;;;5034889;28;20207;-64
2021/05/01 00:28:43;;;;;;;57.80;38.17;;;8.40;99.90;;;;;;5035230;28;20175;-64
2021/05/01 00:31:09;;;;;;;52.17;38.50;;;8.30;99.90;;;;;;5034497;28;20672;-64
2021/05/01 00:33:35;;;;;;;54.43;34.87;;;8.30;99.90;;;;;;5035321;28;20175;-64
2021/05/01 00:36:00;;;;;;;54.13;39.10;;;8.20;99.90;;;;;;5034746;28;20191;-64
2021/05/01 00:38:26;;;;;;;51.20;36.30;;;8.20;99.90;;;;;;5035104;28;20203;-64
2021/05/01 00:40:52;;;;;;;58.90;37.57;;;8.10;99.90;;;;;;5034441;28;20698;-65
2021/05/01 00:43:18;;;;;;;60.20;39.97;;;8.00;99.90;;;;;;5034943;28;20172;-64
2021/05/01 00:45:43;;;;;;;55.00;40.07;;;7.90;99.90;;;;;;5034497;28;20183;-63
2021/05/01 00:48:09;;;;;;;55.47;38.37;;;7.90;99.90;;;;;;5034442;28;20183;-64
2021/05/01 00:50:35;;;;;;;56.30;39.30;;;7.80;99.90;;;;;;5034252;28;20253;-64
2021/05/01 00:53:01;;;;;;;60.00;40.07;;;7.80;99.90;;;;;;5034799;28;20167;-64
2021/05/01 00:55:26;;;;;;;61.77;40.20;;;7.80;99.90;;;;;;5034612;28;20317;-65
2021/05/01 00:57:53;;;;;;;56.83;38.33;;;7.80;99.90;;;;;;5034809;28;20881;-65
2021/05/01 01:00:49;;;;;;;60.03;39.83;;;7.70;99.90;;;;;;5033907;28;20210;-64
2021/05/01 01:03:05;;;;;;;61.03;39.87;;;7.60;99.90;;;;;;5033799;28;20187;-65
2021/05/01 01:05:31;;;;;;;61.77;40.57;;;7.50;99.90;;;;;;5034462;28;20175;-64
2021/05/01 01:07:56;;;;;;;59.07;38.93;;;7.40;99.90;;;;;;5033771;28;20183;-63
2021/05/01 01:10:22;;;;;;;72.63;44.30;;;7.50;99.90;;;;;;5033341;28;20619;-64
2021/05/01 01:12:48;;;;;;;68.57;47.50;;;7.50;99.90;;;;;;5034436;28;20636;-65
2021/05/01 01:15:30;;;;;;;74.07;48.97;;;7.50;99.90;;;;;;5034135;28;20215;-63
2021/05/01 01:17:56;;;;;;;63.73;45.33;;;7.50;99.90;;;;;;5032806;28;20171;-64
2021/05/01 01:20:22;;;;;;;73.40;47.30;;;7.50;99.90;;;;;;5033664;28;20203;-65
2021/05/01 01:22:48;;;;;;;63.63;44.30;;;7.50;99.90;;;;;;5034269;28;20167;-64
2021/05/01 01:25:14;;;;;;;76.97;47.73;;;7.50;99.90;;;;;;5034016;28;20180;-64
2021/05/01 01:27:42;;;;;;;70.17;47.00;;;7.50;99.90;;;;;;5034214;28;20254;-63
2021/05/01 01:30:12;;;;;;;70.20;47.20;;;7.50;99.90;;;;;;5033418;28;20203;-63
2021/05/01 01:32:38;;;;;;;66.43;47.57;;;7.40;99.90;;;;;;5033828;28;20597;-63
2021/05/01 01:35:05;;;;;;;70.70;47.53;;;7.40;99.90;;;;;;5033931;28;20175;-63
2021/05/01 01:37:30;;;;;;;78.97;52.67;;;7.30;99.90;;;;;;5033788;28;20227;-63
2021/05/01 01:39:56;;;;;;;74.57;49.07;;;7.30;99.90;;;;;;5033491;28;20589;-64
2021/05/01 01:42:21;;;;;;;75.77;47.47;;;7.20;99.90;;;;;;5033584;28;20716;-63
2021/05/01 01:44:47;;;;;;;75.33;49.50;;;7.20;99.90;;;;;;5033735;28;20184;-64
2021/05/01 01:47:12;;;;;;;80.80;52.43;;;7.10;99.90;;;;;;5033530;28;20318;-64
2021/05/01 01:49:39;;;;;;;81.37;51.57;;;7.00;99.90;;;;;;5033423;28;20230;-63
2021/05/01 01:52:05;;;;;;;83.17;49.30;;;6.90;99.90;;;;;;5033034;28;20182;-64
2021/05/01 01:54:31;;;;;;;86.93;54.30;;;6.90;99.90;;;;;;5033673;28;20168;-64
2021/05/01 01:56:59;;;;;;;94.53;57.90;;;6.80;99.90;;;;;;5033354;28;20184;-63
2021/05/01 01:59:25;;;;;;;82.27;53.10;;;6.80;99.90;;;;;;5033461;28;20710;-64
2021/05/01 02:01:51;;;;;;;84.97;54.87;;;6.70;99.90;;;;;;5033443;28;20225;-69
2021/05/01 02:04:17;;;;;;;89.03;51.07;;;6.70;99.90;;;;;;5033551;28;20266;-68
2021/05/01 02:06:44;;;;;;;97.10;57.77;;;6.60;99.90;;;;;;5034424;28;20188;-69
2021/05/01 02:09:09;;;;;;;96.77;55.67;;;6.50;99.90;;;;;;5033479;28;20191;-70
2021/05/01 02:11:35;;;;;;;98.10;57.50;;;6.50;99.90;;;;;;5033876;28;20551;-66
2021/05/01 02:14:02;;;;;;;110.53;56.80;;;6.40;99.90;;;;;;5033065;28;20171;-65
2021/05/01 02:16:27;;;;;;;106.40;59.13;;;6.40;99.90;;;;;;5034177;28;20306;-69
2021/05/01 02:18:53;;;;;;;104.57;59.17;;;6.40;99.90;;;;;;5034387;28;20219;-71
2021/05/01 02:21:18;;;;;;;108.03;58.93;;;6.30;99.90;;;;;;5034031;28;20182;-69
2021/05/01 02:23:44;;;;;;;99.83;55.97;;;6.20;99.90;;;;;;5034680;28;20180;-68
2021/05/01 02:26:09;;;;;;;106.17;57.70;;;6.10;99.90;;;;;;5033655;28;20179;-69
2021/05/01 02:28:35;;;;;;;105.87;60.73;;;6.00;99.90;;;;;;5033737;28;20550;-66
2021/05/01 02:31:01;;;;;;;106.73;59.30;;;6.00;99.90;;;;;;5033286;28;20211;-67
2021/05/01 02:33:28;;;;;;;104.03;60.43;;;6.00;99.90;;;;;;5033893;28;20207;-67
2021/05/01 02:35:53;;;;;;;119.97;60.87;;;6.00;99.90;;;;;;5033894;28;20211;-71
2021/05/01 02:38:19;;;;;;;108.30;59.60;;;5.90;99.90;;;;;;5033923;28;20636;-69
2021/05/01 02:40:44;;;;;;;118.13;62.43;;;5.90;99.90;;;;;;5033200;28;20230;-67
2021/05/01 02:43:12;;;;;;;111.63;61.27;;;5.90;99.90;;;;;;5033623;28;20224;-67
2021/05/01 02:45:37;;;;;;;114.17;62.53;;;5.90;99.90;;;;;;5033543;28;20191;-68
2021/05/01 02:48:04;;;;;;;118.33;60.90;;;5.90;99.90;;;;;;5033679;28;20241;-67
2021/05/01 02:50:30;;;;;;;114.50;60.97;;;5.80;99.90;;;;;;5032958;28;20342;-66
2021/05/01 02:52:56;;;;;;;121.10;65.27;;;5.80;99.90;;;;;;5032862;28;20271;-69
2021/05/01 02:55:22;;;;;;;131.63;65.20;;;5.80;99.90;;;;;;5033382;28;20186;-69
2021/05/01 02:57:51;;;;;;;116.27;61.60;;;5.70;99.90;;;;;;5033935;28;20171;-66
2021/05/01 03:00:20;;;;;;;126.20;63.93;;;5.70;99.90;;;;;;5033067;28;20210;-67
2021/05/01 03:02:46;;;;;;;129.20;65.93;;;5.60;99.90;;;;;;5033541;28;20186;-66
2021/05/01 03:05:14;;;;;;;125.13;64.60;;;5.60;99.90;;;;;;5033136;28;20229;-69
2021/05/01 03:07:40;;;;;;;127.40;64.33;;;5.50;99.90;;;;;;5033398;28;20188;-67
2021/05/01 03:10:08;;;;;;;127.03;67.37;;;5.40;99.90;;;;;;5031713;28;20203;-68
2021/05/01 03:12:33;;;;;;;141.90;67.10;;;5.40;99.90;;;;;;5033380;28;20576;-69
2021/05/01 03:14:59;;;;;;;147.27;66.40;;;5.30;99.90;;;;;;5033158;28;20175;-68
2021/05/01 03:17:25;;;;;;;132.23;65.37;;;5.30;99.90;;;;;;5033240;28;20234;-67
2021/05/01 03:19:50;;;;;;;141.87;67.80;;;5.20;99.90;;;;;;5032715;28;20195;-67
2021/05/01 03:22:16;;;;;;;147.53;71.37;;;5.10;99.90;;;;;;5032639;28;20183;-69
2021/05/01 03:24:42;;;;;;;135.40;63.83;;;5.10;99.90;;;;;;5033293;28;20176;-68
2021/05/01 03:27:08;;;;;;;145.77;66.97;;;5.00;99.90;;;;;;5032535;28;20191;-69
2021/05/01 03:29:34;;;;;;;156.23;69.43;;;5.00;99.90;;;;;;5033130;28;20211;-69
2021/05/01 03:31:59;;;;;;;158.40;70.33;;;4.90;99.90;;;;;;5032380;28;20179;-69
2021/05/01 03:34:25;;;;;;;159.10;70.57;;;4.90;99.90;;;;;;5032800;28;20176;-67
2021/05/01 03:36:51;;;;;;;166.27;71.30;;;4.90;99.90;;;;;;5032558;28;20205;-68
2021/05/01 03:39:17;;;;;;;165.80;71.13;;;4.80;99.90;;;;;;5032596;28;20245;-67
2021/05/01 03:41:44;;;;;;;172.67;74.20;;;4.80;99.90;;;;;;5031659;28;20237;-66
2021/05/01 03:44:10;;;;;;;179.53;73.90;;;4.80;99.90;;;;;;5032156;28;20249;-65
2021/05/01 03:46:36;;;;;;;169.13;74.60;;;4.70;99.90;;;;;;5032387;28;20182;-65
2021/05/01 03:49:01;;;;;;;183.27;75.17;;;4.70;99.90;;;;;;5032165;28;20191;-68
2021/05/01 03:51:27;;;;;;;177.83;74.90;;;4.70;99.90;;;;;;5031424;28;20186;-63
2021/05/01 03:53:53;;;;;;;180.73;75.33;;;4.70;99.90;;;;;;5031541;28;20241;-63
2021/05/01 03:56:18;;;;;;;191.20;75.80;;;4.70;99.90;;;;;;5031216;28;20195;-63
2021/05/01 03:58:44;;;;;;;189.80;78.03;;;4.60;99.90;;;;;;5031482;28;20650;-62
2021/05/01 04:01:10;;;;;;;197.73;76.67;;;4.70;99.90;;;;;;5031208;28;20187;-63
2021/05/01 04:03:35;;;;;;;184.93;76.80;;;4.70;99.90;;;;;;5031542;28;20232;-63
2021/05/01 04:06:02;;;;;;;199.63;76.53;;;4.60;99.90;;;;;;5031098;28;20206;-63
2021/05/01 04:08:27;;;;;;;193.93;78.40;;;4.70;99.90;;;;;;5030485;28;20175;-62
2021/05/01 04:10:53;;;;;;;191.60;77.57;;;4.70;99.90;;;;;;5030829;28;20723;-64
2021/05/01 04:13:19;;;;;;;197.03;79.97;;;4.70;99.90;;;;;;5031356;28;20667;-62
2021/05/01 04:15:44;;;;;;;202.10;80.43;;;4.80;99.90;;;;;;5031411;28;20254;-62
2021/05/01 04:18:13;;;;;;;198.00;77.83;;;4.80;99.90;;;;;;5030861;28;20198;-62
2021/05/01 04:20:42;;;;;;;189.87;80.30;;;5.00;99.90;;;;;;5030999;28;20688;-63
2021/05/01 04:23:08;;;;;;;192.63;77.03;;;5.10;99.90;;;;;;5031230;28;20191;-62
2021/05/01 04:25:35;;;;;;;206.60;83.13;;;5.30;99.90;;;;;;5031256;28;20608;-63
2021/05/01 04:28:01;;;;;;;197.37;80.40;;;5.30;99.90;;;;;;5031258;28;20263;-63
2021/05/01 04:30:27;;;;;;;199.50;79.87;;;5.50;99.90;;;;;;5030717;28;20301;-63
2021/05/01 04:32:53;;;;;;;205.33;83.47;;;5.60;99.90;;;;;;5031175;28;20184;-63
2021/05/01 04:35:18;;;;;;;187.03;79.00;;;5.70;99.90;;;;;;5031227;28;20543;-62
2021/05/01 04:37:44;;;;;;;198.30;80.33;;;5.80;99.90;;;;;;5031159;28;20233;-63
2021/05/01 04:40:11;;;;;;;185.30;79.53;;;5.90;99.90;;;;;;5030445;28;20218;-63
2021/05/01 04:42:41;;;;;;;180.30;75.20;;;5.90;99.90;;;;;;5030934;28;20263;-63
2021/05/01 04:45:07;;;;;;;171.03;77.63;;;6.00;99.90;;;;;;5031059;28;20191;-62
2021/05/01 04:47:33;;;;;;;181.23;77.13;;;6.00;99.90;;;;;;5030957;28;20202;-62
2021/05/01 04:49:58;;;;;;;173.27;76.40;;;6.10;99.90;;;;;;5030617;28;20207;-64
2021/05/01 04:52:24;;;;;;;160.17;73.50;;;6.10;99.90;;;;;;5031824;28;20549;-63
2021/05/01 04:54:52;;;;;;;158.23;70.67;;;6.10;99.90;;;;;;5034294;28;20651;-63
2021/05/01 04:57:18;;;;;;;165.13;69.23;;;6.10;99.90;;;;;;5034933;28;20178;-62
2021/05/01 04:59:43;;;;;;;159.30;71.23;;;6.10;99.90;;;;;;5034172;28;20192;-62
2021/05/01 05:02:09;;;;;;;160.57;72.27;;;6.10;99.90;;;;;;5034520;28;20203;-63
2021/05/01 05:04:35;;;;;;;155.10;71.40;;;6.10;99.90;;;;;;5034568;28;20187;-63
2021/05/01 05:07:00;;;;;;;168.70;73.80;;;6.10;99.90;;;;;;5034621;28;20530;-63
2021/05/01 05:09:26;;;;;;;161.20;75.00;;;6.20;99.90;;;;;;5034016;28;20203;-63
2021/05/01 05:11:51;;;;;;;159.93;72.30;;;6.40;99.90;;;;;;5034039;28;20183;-63
2021/05/01 05:14:17;;;;;;;159.47;74.67;;;6.50;99.90;;;;;;5034388;28;20175;-63
2021/05/01 05:16:43;;;;;;;155.17;74.83;;;6.50;99.90;;;;;;5034325;28;20207;-64
2021/05/01 05:19:08;;;;;;;152.60;70.53;;;6.60;99.90;;;;;;5034210;28;20199;-64
2021/05/01 05:21:35;;;;;;;154.07;71.97;;;6.60;99.90;;;;;;5033855;28;20537;-63
2021/05/01 05:24:04;;;;;;;135.47;65.10;;;6.60;99.90;;;;;;5034129;28;20251;-63
2021/05/01 05:26:30;;;;;;;149.50;69.53;;;6.60;99.90;;;;;;5033799;28;20179;-63
2021/05/01 05:28:56;;;;;;;128.67;65.90;;;6.50;99.90;;;;;;5033993;28;20607;-64
2021/05/01 05:31:22;;;;;;;131.33;68.27;;;6.60;99.90;;;;;;5033513;28;20203;-64
2021/05/01 05:33:47;;;;;;;130.57;61.50;;;6.60;99.90;;;;;;5034043;28;20186;-64
2021/05/01 05:36:13;;;;;;;130.53;63.67;;;6.50;99.90;;;;;;5033934;28;20254;-64
2021/05/01 05:38:38;;;;;;;121.33;60.27;;;6.50;99.90;;;;;;5033818;28;20199;-64
2021/05/01 05:41:04;;;;;;;110.20;56.83;;;6.50;99.90;;;;;;5013058;22;20688;-63
2021/05/01 05:43:33;;;;;;;118.47;59.47;;;6.60;99.90;;;;;;4994821;28;20169;-66
2021/05/01 05:45:58;;;;;;;104.00;62.70;;;6.70;99.90;;;;;;4987753;28;20173;-66
2021/05/01 05:48:24;;;;;;;104.97;60.00;;;6.90;99.90;;;;;;4994395;28;20526;-67
2021/05/01 05:50:49;;;;;;;98.97;58.40;;;7.10;99.90;;;;;;4988795;28;20209;-66
2021/05/01 05:53:15;;;;;;;94.77;57.37;;;7.40;99.90;;;;;;4974823;28;20177;-66
2021/05/01 05:55:41;;;;;;;84.23;50.80;;;7.60;99.90;;;;;;4977261;28;20173;-67
2021/05/01 05:58:06;;;;;;;78.67;51.03;;;8.00;99.90;;;;;;4981363;28;20192;-64
2021/05/01 06:00:32;;;;;;;64.73;48.00;;;8.30;99.90;;;;;;4991963;28;20220;-65
2021/05/01 06:02:59;;;;;;;65.77;45.63;;;8.50;99.90;;;;;;4974498;28;20537;-65
2021/05/01 06:05:27;;;;;;;55.73;39.23;;;8.80;99.90;;;;;;4974110;28;20184;-65
2021/05/01 06:07:58;;;;;;;50.73;38.00;;;9.20;99.90;;;;;;4955254;29;20182;-64
2021/05/01 06:10:24;;;;;;;49.47;37.03;;;9.50;99.90;;;;;;4954577;28;20261;-65
2021/05/01 06:12:52;;;;;;;43.57;30.93;;;9.50;99.90;;;;;;4974490;28;20182;-63
2021/05/01 06:15:18;;;;;;;39.80;31.23;;;9.50;99.90;;;;;;4974658;28;20165;-65
2021/05/01 06:17:46;;;;;;;40.87;33.37;;;9.60;99.90;;;;;;4991880;28;20187;-67
2021/05/01 06:20:14;;;;;;;34.70;28.73;;;9.70;99.90;;;;;;4993342;28;20228;-63
2021/05/01 06:22:40;;;;;;;36.43;25.57;;;9.90;99.90;;;;;;4977005;28;20185;-65
2021/05/01 06:25:07;;;;;;;35.40;27.37;;;10.10;99.90;;;;;;4974081;28;20181;-64
2021/05/01 06:27:33;;;;;;;30.77;25.03;;;10.20;99.90;;;;;;4981508;28;20212;-64
2021/05/01 06:30:01;;;;;;;38.80;27.43;;;10.40;99.90;;;;;;4973673;28;20690;-65
2021/05/01 06:32:27;;;;;;;31.20;25.30;;;10.60;99.90;;;;;;4983708;28;20176;-64
2021/05/01 06:34:54;;;;;;;36.43;28.13;;;10.80;99.90;;;;;;4993589;28;20609;-64
2021/05/01 06:37:22;;;;;;;34.07;27.90;;;11.00;99.90;;;;;;4981250;28;20209;-66
2021/05/01 06:39:49;;;;;;;30.93;24.17;;;11.20;99.90;;;;;;4972340;28;20205;-65
2021/05/01 06:42:33;;;;;;;31.93;23.50;;;11.50;99.90;;;;;;4974866;28;20197;-65
2021/05/01 06:45:07;;;;;;;30.03;21.93;;;11.80;99.90;;;;;;4973873;28;20165;-64
2021/05/01 06:47:36;;;;;;;26.47;21.67;;;12.10;99.90;;;;;;4986692;28;20258;-64
2021/05/01 06:50:08;;;;;;;32.03;21.17;;;12.20;99.90;;;;;;4992733;28;20925;-65
2021/05/01 06:52:40;;;;;;;31.57;22.03;;;12.30;99.90;;;;;;4989830;28;20177;-64
2021/05/01 06:55:07;;;;;;;25.47;22.33;;;12.70;99.90;;;;;;4993068;28;20193;-63
2021/05/01 06:57:37;;;;;;;24.47;21.83;;;12.80;99.90;;;;;;4982146;28;20663;-65
2021/05/01 07:00:06;;;;;;;25.60;20.43;;;12.90;99.90;;;;;;4976246;28;20621;-65
2021/05/01 07:02:35;;;;;;;24.17;20.07;;;12.90;99.90;;;;;;4983484;28;20192;-65
2021/05/01 07:05:00;;;;;;;28.07;19.97;;;12.70;99.90;;;;;;4992720;28;20184;-65
2021/05/01 07:07:28;;;;;;;21.20;17.00;;;12.90;99.90;;;;;;4982907;28;20197;-65
2021/05/01 07:09:55;;;;;;;16.60;14.80;;;13.30;99.90;;;;;;4986018;28;20233;-65
2021/05/01 07:12:22;;;;;;;17.10;14.87;;;13.50;99.90;;;;;;4983924;28;20181;-65
2021/05/01 07:14:49;;;;;;;17.17;15.27;;;13.70;99.90;;;;;;4973658;28;20170;-65
2021/05/01 07:17:17;;;;;;;22.37;15.87;;;13.50;99.90;;;;;;4979381;28;20723;-65
2021/05/01 07:19:43;;;;;;;22.57;14.87;;;13.40;99.90;;;;;;4989729;28;20192;-64
2021/05/01 07:22:11;;;;;;;17.17;15.30;;;13.20;99.90;;;;;;4980347;28;20542;-65
2021/05/01 07:24:37;;;;;;;18.67;14.60;;;13.20;99.90;;;;;;4982755;28;20200;-67
2021/05/01 07:27:03;;;;;;;21.17;15.37;;;13.10;99.90;;;;;;4989236;28;20184;-65
2021/05/01 07:29:36;;;;;;;19.10;16.43;;;13.60;99.90;;;;;;4990709;28;20716;-63
2021/05/01 07:32:03;;;;;;;21.70;16.17;;;13.80;99.90;;;;;;4979023;28;20209;-65
2021/05/01 07:34:31;;;;;;;23.03;18.17;;;14.10;99.90;;;;;;4984614;28;20192;-69
2021/05/01 07:37:10;;;;;;;20.63;17.20;;;14.40;99.90;;;;;;4980605;28;20387;-65
2021/05/01 07:39:39;;;;;;;21.70;18.47;;;14.40;99.90;;;;;;4975144;28;20220;-64
2021/05/01 07:42:07;;;;;;;23.03;17.63;;;14.80;99.90;;;;;;4988194;28;20181;-65
2021/05/01 07:44:33;;;;;;;23.30;20.53;;;15.30;99.90;;;;;;4977524;28;20247;-65
2021/05/01 07:47:00;;;;;;;26.03;18.73;;;15.60;99.90;;;;;;4978432;28;20182;-65
2021/05/01 07:49:26;;;;;;;20.90;18.70;;;15.70;99.90;;;;;;4972913;28;20710;-65
2021/05/01 07:51:52;;;;;;;21.47;19.17;;;15.80;99.90;;;;;;4978386;28;20188;-64
2021/05/01 07:54:18;;;;;;;26.17;21.60;;;15.70;99.90;;;;;;4973803;28;20650;-64
2021/05/01 07:56:44;;;;;;;28.40;22.00;;;15.80;99.90;;;;;;4982780;28;20259;-65
2021/05/01 07:59:10;;;;;;;26.50;21.67;;;15.50;99.90;;;;;;4983649;28;20181;-64
2021/05/01 08:01:37;;;;;;;22.53;18.60;;;15.40;99.90;;;;;;4988834;28;20176;-64
2021/05/01 08:04:03;;;;;;;24.90;18.30;;;15.40;99.90;;;;;;4989831;28;20536;-65
2021/05/01 08:06:29;;;;;;;27.43;21.50;;;15.10;99.90;;;;;;4990703;28;20185;-64
2021/05/01 08:08:55;;;;;;;23.43;20.87;;;14.60;99.90;;;;;;4980844;28;20173;-64
2021/05/01 08:11:22;;;;;;;23.40;20.90;;;14.90;99.90;;;;;;4972362;28;20205;-67
2021/05/01 08:13:47;;;;;;;24.50;20.03;;;15.30;99.90;;;;;;4974046;28;20713;-65
2021/05/01 08:16:16;;;;;;;25.47;22.70;;;16.10;99.90;;;;;;4982930;28;20189;-65
2021/05/01 08:18:43;;;;;;;25.80;22.47;;;16.20;99.90;;;;;;4973287;28;20573;-65
2021/05/01 08:21:09;;;;;;;25.50;21.17;;;16.10;99.90;;;;;;4976613;28;20678;-63
2021/05/01 08:23:36;;;;;;;26.30;20.33;;;16.30;99.90;;;;;;4990617;28;20195;-64
2021/05/01 08:26:03;;;;;;;25.87;20.37;;;16.30;99.90;;;;;;4989579;28;20173;-66
2021/05/01 08:28:29;;;;;;;21.70;18.07;;;16.50;99.90;;;;;;4975246;28;20181;-65
2021/05/01 08:30:55;;;;;;;22.47;19.33;;;16.50;99.90;;;;;;4975799;28;20217;-67
2021/05/01 08:33:20;;;;;;;20.17;17.40;;;16.40;99.90;;;;;;4976166;28;20255;-66
2021/05/01 08:35:47;;;;;;;23.70;19.70;;;16.90;99.90;;;;;;4986101;28;20177;-64
2021/05/01 08:38:13;;;;;;;21.57;19.23;;;17.10;99.90;;;;;;4981817;28;20686;-66
2021/05/01 08:40:39;;;;;;;22.40;20.00;;;16.90;99.90;;;;;;4993705;28;20215;-63
2021/05/01 08:43:05;;;;;;;21.20;18.77;;;16.60;99.90;;;;;;4994218;28;20188;-65
2021/05/01 08:45:32;;;;;;;22.63;19.07;;;16.90;99.90;;;;;;4987940;28;20675;-65
2021/05/01 08:48:02;;;;;;;24.33;19.67;;;16.80;99.90;;;;;;4976501;28;20174;-64
2021/05/01 08:50:31;;;;;;;22.33;18.40;;;17.00;99.90;;;;;;4977011;28;20223;-65
2021/05/01 08:52:59;;;;;;;23.30;18.30;;;17.50;99.90;;;;;;4956577;28;20175;-64
2021/05/01 08:55:32;;;;;;;20.02;17.88;;;17.70;99.90;;;;;;4957028;28;20186;-64
2021/05/01 08:57:58;;;;;;;22.97;19.67;;;17.50;99.90;;;;;;4963673;28;20547;-64
2021/05/01 09:00:24;;;;;;;24.60;16.93;;;17.10;99.90;;;;;;4986281;28;20205;-65
2021/05/01 09:02:50;;;;;;;23.50;17.47;;;17.10;99.90;;;;;;4975750;28;20255;-64
2021/05/01 09:05:17;;;;;;;23.90;19.57;;;17.20;99.90;;;;;;4982267;28;20203;-64
2021/05/01 09:07:46;;;;;;;21.70;18.27;;;17.60;99.90;;;;;;4990422;28;20282;-64
2021/05/01 09:10:12;;;;;;;17.20;15.45;;;18.20;99.90;;;;;;4993883;28;20384;-64
2021/05/01 09:12:48;;;;;;;22.35;16.35;;;18.70;99.90;;;;;;4976713;28;20611;-65
2021/05/01 09:15:25;;;;;;;21.33;18.63;;;18.80;99.90;;;;;;4975640;28;20252;-64
2021/05/01 09:18:04;;;;;;;18.52;16.55;;;18.70;99.90;;;;;;4994161;28;20176;-65
2021/05/01 09:20:31;;;;;;;21.15;18.73;;;18.50;99.90;;;;;;4977664;28;20705;-65
2021/05/01 09:23:00;;;;;;;19.20;17.20;;;18.50;99.90;;;;;;4975565;28;20178;-65
2021/05/01 09:25:28;;;;;;;20.08;17.02;;;18.40;99.90;;;;;;4978324;28;20169;-64
2021/05/01 09:28:07;;;;;;;21.05;16.65;;;18.60;99.90;;;;;;4985525;28;20182;-64
2021/05/01 09:30:36;;;;;;;16.77;14.27;;;18.80;99.90;;;;;;4955667;28;20209;-64
2021/05/01 09:33:23;;;;;;;18.88;16.88;;;19.20;99.90;;;;;;4959076;28;20167;-64
2021/05/01 09:36:05;;;;;;;18.38;16.25;;;18.90;99.90;;;;;;4993247;28;20542;-65
2021/05/01 09:38:37;;;;;;;19.25;16.95;;;18.60;99.90;;;;;;4964211;28;20189;-65
2021/05/01 09:41:19;;;;;;;19.92;17.17;;;18.40;99.90;;;;;;4975085;28;20583;-64
2021/05/01 09:44:04;;;;;;;19.60;16.20;;;18.30;99.90;;;;;;4975224;28;20232;-64
2021/05/01 09:46:52;;;;;;;19.02;15.48;;;18.70;99.90;;;;;;4976759;28;20177;-64
2021/05/01 09:49:19;;;;;;;19.90;16.08;;;19.00;99.90;;;;;;4983349;28;20699;-64
2021/05/01 09:51:48;;;;;;;18.13;15.13;;;19.10;99.90;;;;;;4989128;28;20185;-65
2021/05/01 09:54:16;;;;;;;17.48;14.43;;;19.40;99.90;;;;;;4981935;28;20177;-64
2021/05/01 09:56:43;;;;;;;17.00;14.68;;;19.80;99.90;;;;;;4993647;28;20168;-65
2021/05/01 09:59:10;;;;;;;20.20;15.10;;;19.70;99.90;;;;;;4991708;28;20181;-64
2021/05/01 10:01:36;;;;;;;17.65;13.93;;;19.50;99.10;;;;;;4990631;28;20272;-65
2021/05/01 10:04:13;;;;;;;17.60;14.98;;;20.20;97.30;;;;;;4981505;28;20197;-65
2021/05/01 10:06:53;;;;;;;16.88;14.07;;;21.10;99.00;;;;;;4974661;28;20563;-64
2021/05/01 10:09:30;;;;;;;19.92;15.50;;;21.60;96.10;;;;;;4988472;28;20223;-64
2021/05/01 10:12:14;;;;;;;15.38;13.82;;;20.80;96.80;;;;;;4993818;28;20227;-64
2021/05/01 10:14:50;;;;;;;15.93;14.00;;;20.40;96.60;;;;;;4976275;28;20710;-65
2021/05/01 10:17:24;;;;;;;16.17;14.48;;;20.50;95.70;;;;;;4974563;28;20522;-64
2021/05/01 10:19:55;;;;;;;17.33;14.93;;;19.70;93.80;;;;;;4993142;28;20223;-64
2021/05/01 10:22:24;;;;;;;16.45;13.90;;;19.20;95.70;;;;;;4993866;28;20192;-64
2021/05/01 10:24:50;;;;;;;18.08;12.40;;;19.40;97.00;;;;;;4975450;28;20185;-64
2021/05/01 10:27:18;;;;;;;17.58;13.48;;;19.80;94.00;;;;;;4974403;28;20173;-66
2021/05/01 10:29:45;;;;;;;15.52;12.93;;;18.80;93.80;;;;;;4991687;28;20215;-65
2021/05/01 10:32:34;;;;;;;17.58;13.48;;;18.60;96.30;;;;;;4992391;28;20180;-64
2021/05/01 10:35:00;;;;;;;15.85;13.15;;;18.60;94.60;;;;;;4991057;28;20247;-64
2021/05/01 10:37:31;;;;;;;16.10;12.48;;;18.50;93.30;;;;;;4993517;28;20197;-64
2021/05/01 10:39:58;;;;;;;15.77;12.13;;;18.30;93.40;;;;;;4992536;28;20303;-65
2021/05/01 10:42:24;;;;;;;13.10;11.17;;;17.80;93.40;;;;;;4993680;28;20263;-64
2021/05/01 10:45:01;;;;;;;11.87;10.67;;;18.10;92.90;;;;;;4975424;28;20682;-64
2021/05/01 10:47:27;;;;;;;12.97;10.70;;;18.10;92.60;;;;;;4973982;28;20220;-64
2021/05/01 10:49:57;;;;;;;14.47;11.73;;;18.00;94.90;;;;;;4991948;28;20259;-65
2021/05/01 10:52:23;;;;;;;16.13;11.23;;;17.80;94.00;;;;;;4993580;28;20176;-64
2021/05/01 10:55:16;;;;;;;12.90;10.53;;;17.70;92.40;;;;;;4975810;28;20181;-64
2021/05/01 10:57:42;;;;;;;12.03;9.60;;;17.70;92.80;;;;;;4972665;28;20185;-63
2021/05/01 11:00:12;;;;;;;13.47;10.63;;;18.00;93.90;;;;;;4992824;28;20200;-64
2021/05/01 11:02:40;;;;;;;13.03;10.77;;;18.30;93.20;;;;;;4992735;28;20180;-64
2021/05/01 11:05:08;;;;;;;11.38;10.25;;;18.60;93.30;;;;;;4973826;28;20177;-64
2021/05/01 11:07:45;;;;;;;12.10;9.52;;;18.90;93.70;;;;;;4973945;28;20675;-64
2021/05/01 11:10:15;;;;;;;10.85;8.90;;;19.20;95.10;;;;;;4953026;28;20290;-64
2021/05/01 11:12:49;;;;;;;15.00;9.05;;;19.80;94.40;;;;;;4954641;28;20240;-65
2021/05/01 11:15:15;;;;;;;10.52;7.57;;;19.90;92.80;;;;;;4954129;28;20174;-64
2021/05/01 11:17:41;;;;;;;14.00;7.80;;;19.50;90.70;;;;;;4955096;28;20186;-64
2021/05/01 11:20:12;;;;;;;7.93;7.13;;;18.70;91.40;;;;;;4976686;28;20216;-64
2021/05/01 11:22:40;;;;;;;10.40;7.50;;;18.50;89.70;;;;;;4992782;28;20176;-64
2021/05/01 11:25:09;;;;;;;11.75;6.75;;;18.50;91.20;;;;;;4973402;28;20189;-65
2021/05/01 11:27:36;;;;;;;10.70;7.05;;;19.40;91.40;;;;;;4973493;28;20272;-64
2021/05/01 11:30:03;;;;;;;9.52;8.02;;;19.40;90.60;;;;;;4991480;28;20215;-64
2021/05/01 11:32:29;;;;;;;11.83;7.73;;;19.00;90.10;;;;;;4992912;28;20188;-64
2021/05/01 11:35:07;;;;;;;7.60;6.83;;;18.10;90.60;;;;;;4975108;28;20193;-64
2021/05/01 11:37:41;;;;;;;9.23;7.70;;;17.90;91.10;;;;;;4992544;28;20188;-64
2021/05/01 11:40:10;;;;;;;8.37;7.00;;;17.90;91.20;;;;;;5000534;22;20224;-65
2021/05/01 11:42:38;;;;;;;9.47;7.73;;;18.40;91.10;;;;;;5011881;28;20164;-64
2021/05/01 11:45:16;;;;;;;8.33;6.37;;;18.40;91.50;;;;;;5029578;28;20180;-65
2021/05/01 11:47:49;;;;;;;9.00;7.47;;;18.40;89.60;;;;;;5031805;28;20175;-64
2021/05/01 11:50:15;;;;;;;9.23;6.80;;;18.30;90.90;;;;;;5012344;28;20218;-64
2021/05/01 11:52:59;;;;;;;8.25;7.15;;;18.60;90.40;;;;;;5011049;28;20168;-65
2021/05/01 11:55:42;;;;;;;7.93;6.97;;;19.00;91.80;;;;;;4991854;28;20181;-65
2021/05/01 11:58:09;;;;;;;8.10;6.82;;;19.50;89.50;;;;;;4994386;28;20176;-65
2021/05/01 12:00:40;;;;;;;11.00;6.63;;;19.40;90.30;;;;;;5031022;28;20210;-65
2021/05/01 12:03:26;;;;;;;8.82;6.15;;;19.20;89.50;;;;;;5029478;28;20172;-65
2021/05/01 12:05:59;;;;;;;5.95;5.30;;;19.70;88.40;;;;;;5011819;28;20280;-64
2021/05/01 12:08:26;;;;;;;6.55;5.55;;;19.80;92.10;;;;;;5014844;28;20194;-65
2021/05/01 12:10:55;;;;;;;8.60;5.72;;;20.20;86.70;;;;;;5030757;28;20207;-64
2021/05/01 12:13:30;;;;;;;6.03;5.43;;;20.50;86.80;;;;;;5028217;28;20191;-65
2021/05/01 12:15:58;;;;;;;14.95;5.43;;;20.80;84.90;;;;;;5011507;28;20164;-65
2021/05/01 12:18:44;;;;;;;5.70;5.10;;;21.30;86.60;;;;;;5014367;28;20255;-64
2021/05/01 12:21:19;;;;;;;5.53;4.97;;;21.60;78.40;;;;;;5030783;28;20205;-65
2021/05/01 12:23:46;;;;;;;6.22;4.82;;;22.10;76.50;;;;;;5026411;28;20183;-64
2021/05/01 12:26:35;;;;;;;6.15;4.85;;;22.00;76.50;;;;;;5011882;28;20271;-64
2021/05/01 12:29:21;;;;;;;4.97;4.50;;;21.70;77.60;;;;;;5011196;28;20242;-64
2021/05/01 12:31:50;;;;;;;6.28;5.10;;;21.80;75.90;;;;;;5011031;28;20187;-65
2021/05/01 12:34:17;;;;;;;5.25;4.75;;;20.90;73.30;;;;;;5011260;28;20184;-65
2021/05/01 12:36:45;;;;;;;9.23;5.47;;;20.40;73.10;;;;;;5011253;28;20175;-64